sensor_id;sensor_type;location;lat;lon;timestamp;temperature;humidity
2625;DHT22;1322;53.256;10.386;2023-06-14T00:00:32;17.70;99.90
2625;DHT22;1322;53.256;10.386;2023-06-14T00:03:00;17.50;99.90
2625;DHT22;1322;53.256;10.386;2023-06-14T00:05:25;17.40;99.90
2625;DHT22;1322;53.256;10.386;2023-06-14T00:07:51;17.50;99.90
2625;DHT22;1322;53.256;10.386;2023-06-14T00:10:19;17.40;99.90
2625;DHT22;1322;53.256;10.386;2023-06-14T00:12:44;17.40;99.90
2625;DHT22;1322;53.256;10.386;2023-06-14T00:15:10;17.50;99.90
2625;DHT22;1322;53.256;10.386;2023-06-14T00:17:36;17.50;99.90
2625;DHT22;1322;53.256;10.386;2023-06-14T00:20:04;17.50;99.90
2625;DHT22;1322;53.256;10.386;2023-06-14T00:22:33;17.50;99.90
2625;DHT22;1322;53.256;10.386;2023-06-14T00:24:59;17.40;99.90
2625;DHT22;1322;53.256;10.386;2023-06-14T00:27:25;17.30;99.90
2625;DHT22;1322;53.256;10.386;2023-06-14T00:29:51;17.20;99.90
2625;DHT22;1322;53.256;10.386;2023-06-14T00:32:18;17.20;99.90
2625;DHT22;1322;53.256;10.386;2023-06-14T00:34:44;17.30;99.90
2625;DHT22;1322;53.256;10.386;2023-06-14T00:37:09;17.20;99.90
2625;DHT22;1322;53.256;10.386;2023-06-14T00:39:35;17.20;99.90
2625;DHT22;1322;53.256;10.386;2023-06-14T00:42:01;17.20;99.90
2625;DHT22;1322;53.256;10.386;2023-06-14T00:44:27;17.30;99.90
2625;DHT22;1322;53.256;10.386;2023-06-14T00:46:52;17.30;99.90
2625;DHT22;1322;53.256;10.386;2023-06-14T00:49:18;17.20;99.90
2625;DHT22;1322;53.256;10.386;2023-06-14T00:51:45;17.20;99.90
2625;DHT22;1322;53.256;10.386;2023-06-14T00:54:11;17.10;99.90
2625;DHT22;1322;53.256;10.386;2023-06-14T00:56:36;17.20;99.90
2625;DHT22;1322;53.256;10.386;2023-06-14T00:59:03;17.20;99.90
2625;DHT22;1322;53.256;10.386;2023-06-14T01:01:29;17.20;99.90
2625;DHT22;1322;53.256;10.386;2023-06-14T01:03:58;17.20;99.90
2625;DHT22;1322;53.256;10.386;2023-06-14T01:06:58;17.20;99.90
2625;DHT22;1322;53.256;10.386;2023-06-14T01:14:29;17.10;99.90
2625;DHT22;1322;53.256;10.386;2023-06-14T01:16:57;17.10;99.90
2625;DHT22;1322;53.256;10.386;2023-06-14T01:19:25;17.10;99.90
2625;DHT22;1322;53.256;10.386;2023-06-14T01:21:51;17.00;99.90
2625;DHT22;1322;53.256;10.386;2023-06-14T01:24:18;17.00;99.90
2625;DHT22;1322;53.256;10.386;2023-06-14T01:26:54;17.00;99.90
2625;DHT22;1322;53.256;10.386;2023-06-14T01:29:22;17.00;99.90
2625;DHT22;1322;53.256;10.386;2023-06-14T01:31:49;16.90;99.90
2625;DHT22;1322;53.256;10.386;2023-06-14T01:34:15;17.00;99.90
2625;DHT22;1322;53.256;10.386;2023-06-14T01:36:43;16.90;99.90
2625;DHT22;1322;53.256;10.386;2023-06-14T01:39:12;16.90;99.90
2625;DHT22;1322;53.256;10.386;2023-06-14T01:41:39;17.00;99.90
2625;DHT22;1322;53.256;10.386;2023-06-14T01:44:06;16.90;99.90
2625;DHT22;1322;53.256;10.386;2023-06-14T01:46:31;16.80;99.90
2625;DHT22;1322;53.256;10.386;2023-06-14T01:48:57;16.70;99.90
2625;DHT22;1322;53.256;10.386;2023-06-14T01:51:24;16.80;99.90
2625;DHT22;1322;53.256;10.386;2023-06-14T01:53:49;16.70;99.90
2625;DHT22;1322;53.256;10.386;2023-06-14T01:56:15;16.70;99.90
2625;DHT22;1322;53.256;10.386;2023-06-14T01:58:41;16.70;99.90
2625;DHT22;1322;53.256;10.386;2023-06-14T02:01:07;16.70;99.90
2625;DHT22;1322;53.256;10.386;2023-06-14T02:03:33;16.70;99.90
2625;DHT22;1322;53.256;10.386;2023-06-14T02:05:59;16.60;99.90
2625;DHT22;1322;53.256;10.386;2023-06-14T02:08:25;16.60;99.90
2625;DHT22;1322;53.256;10.386;2023-06-14T02:10:51;16.40;99.90
2625;DHT22;1322;53.256;10.386;2023-06-14T02:13:17;16.40;99.90
2625;DHT22;1322;53.256;10.386;2023-06-14T02:15:42;16.50;99.90
2625;DHT22;1322;53.256;10.386;2023-06-14T02:18:09;16.50;99.90
2625;DHT22;1322;53.256;10.386;2023-06-14T02:20:35;16.40;99.90
2625;DHT22;1322;53.256;10.386;2023-06-14T02:23:01;16.40;99.90
2625;DHT22;1322;53.256;10.386;2023-06-14T02:25:27;16.40;99.90
2625;DHT22;1322;53.256;10.386;2023-06-14T02:27:55;16.40;99.90
2625;DHT22;1322;53.256;10.386;2023-06-14T02:30:21;16.30;99.90
2625;DHT22;1322;53.256;10.386;2023-06-14T02:32:47;16.40;99.90
2625;DHT22;1322;53.256;10.386;2023-06-14T02:35:14;16.40;99.90
2625;DHT22;1322;53.256;10.386;2023-06-14T02:37:40;16.40;99.90
2625;DHT22;1322;53.256;10.386;2023-06-14T02:40:06;16.30;99.90
2625;DHT22;1322;53.256;10.386;2023-06-14T02:42:32;16.30;99.90
2625;DHT22;1322;53.256;10.386;2023-06-14T02:44:58;16.30;99.90
2625;DHT22;1322;53.256;10.386;2023-06-14T02:47:23;16.20;99.90
2625;DHT22;1322;53.256;10.386;2023-06-14T02:49:50;16.20;99.90
2625;DHT22;1322;53.256;10.386;2023-06-14T02:52:15;16.20;99.90
2625;DHT22;1322;53.256;10.386;2023-06-14T02:54:41;16.20;99.90
2625;DHT22;1322;53.256;10.386;2023-06-14T02:57:07;16.10;99.90
2625;DHT22;1322;53.256;10.386;2023-06-14T02:59:33;16.10;99.90
2625;DHT22;1322;53.256;10.386;2023-06-14T03:01:59;16.10;99.90
2625;DHT22;1322;53.256;10.386;2023-06-14T03:04:25;16.00;99.90
2625;DHT22;1322;53.256;10.386;2023-06-14T03:06:51;16.00;99.90
2625;DHT22;1322;53.256;10.386;2023-06-14T03:09:19;16.00;99.90
2625;DHT22;1322;53.256;10.386;2023-06-14T03:11:45;15.70;99.90
2625;DHT22;1322;53.256;10.386;2023-06-14T03:14:11;15.70;99.90
2625;DHT22;1322;53.256;10.386;2023-06-14T03:16:38;15.70;99.90
2625;DHT22;1322;53.256;10.386;2023-06-14T03:19:06;15.80;99.90
2625;DHT22;1322;53.256;10.386;2023-06-14T03:21:32;15.70;99.90
2625;DHT22;1322;53.256;10.386;2023-06-14T03:23:58;15.80;99.90
2625;DHT22;1322;53.256;10.386;2023-06-14T03:26:23;15.80;99.90
2625;DHT22;1322;53.256;10.386;2023-06-14T03:28:50;15.80;99.90
2625;DHT22;1322;53.256;10.386;2023-06-14T03:31:16;15.90;99.90
2625;DHT22;1322;53.256;10.386;2023-06-14T03:33:42;16.10;99.90
2625;DHT22;1322;53.256;10.386;2023-06-14T03:36:08;16.10;99.90
2625;DHT22;1322;53.256;10.386;2023-06-14T03:38:34;16.00;99.90
2625;DHT22;1322;53.256;10.386;2023-06-14T03:41:00;16.10;99.90
2625;DHT22;1322;53.256;10.386;2023-06-14T03:43:25;16.10;99.90
2625;DHT22;1322;53.256;10.386;2023-06-14T03:45:51;16.30;99.90
2625;DHT22;1322;53.256;10.386;2023-06-14T03:48:17;16.40;99.90
2625;DHT22;1322;53.256;10.386;2023-06-14T03:50:43;16.60;99.90
2625;DHT22;1322;53.256;10.386;2023-06-14T03:53:10;16.80;99.90
2625;DHT22;1322;53.256;10.386;2023-06-14T03:55:36;16.80;99.90
2625;DHT22;1322;53.256;10.386;2023-06-14T03:58:03;17.00;99.90
2625;DHT22;1322;53.256;10.386;2023-06-14T04:00:28;17.10;99.90
2625;DHT22;1322;53.256;10.386;2023-06-14T04:02:54;17.10;99.90
2625;DHT22;1322;53.256;10.386;2023-06-14T04:05:20;17.20;99.90
2625;DHT22;1322;53.256;10.386;2023-06-14T04:07:46;17.20;99.90
2625;DHT22;1322;53.256;10.386;2023-06-14T04:10:15;17.40;99.90
2625;DHT22;1322;53.256;10.386;2023-06-14T04:12:41;17.20;99.90
2625;DHT22;1322;53.256;10.386;2023-06-14T04:15:08;17.50;99.90
2625;DHT22;1322;53.256;10.386;2023-06-14T04:17:37;17.70;99.90
2625;DHT22;1322;53.256;10.386;2023-06-14T04:20:03;17.90;99.90
2625;DHT22;1322;53.256;10.386;2023-06-14T04:22:31;18.20;99.90
2625;DHT22;1322;53.256;10.386;2023-06-14T04:24:57;18.30;99.90
2625;DHT22;1322;53.256;10.386;2023-06-14T04:27:23;18.40;99.90
2625;DHT22;1322;53.256;10.386;2023-06-14T04:29:51;18.40;99.90
2625;DHT22;1322;53.256;10.386;2023-06-14T04:32:25;18.60;99.90
2625;DHT22;1322;53.256;10.386;2023-06-14T04:34:55;18.90;99.90
2625;DHT22;1322;53.256;10.386;2023-06-14T04:37:21;19.10;99.90
2625;DHT22;1322;53.256;10.386;2023-06-14T04:39:48;19.20;99.90
2625;DHT22;1322;53.256;10.386;2023-06-14T04:42:14;19.50;99.90
2625;DHT22;1322;53.256;10.386;2023-06-14T04:44:41;19.70;99.90
2625;DHT22;1322;53.256;10.386;2023-06-14T04:47:07;19.60;99.90
2625;DHT22;1322;53.256;10.386;2023-06-14T04:49:33;19.80;99.90
2625;DHT22;1322;53.256;10.386;2023-06-14T04:52:00;19.90;99.90
2625;DHT22;1322;53.256;10.386;2023-06-14T04:54:27;19.80;99.90
2625;DHT22;1322;53.256;10.386;2023-06-14T04:56:53;19.80;99.90
2625;DHT22;1322;53.256;10.386;2023-06-14T04:59:20;20.00;99.90
2625;DHT22;1322;53.256;10.386;2023-06-14T05:01:48;19.70;99.90
2625;DHT22;1322;53.256;10.386;2023-06-14T05:04:15;20.00;99.90
2625;DHT22;1322;53.256;10.386;2023-06-14T05:06:45;20.00;99.90
2625;DHT22;1322;53.256;10.386;2023-06-14T05:09:12;20.20;99.90
2625;DHT22;1322;53.256;10.386;2023-06-14T05:11:38;20.40;99.90
2625;DHT22;1322;53.256;10.386;2023-06-14T05:14:04;20.60;99.90
2625;DHT22;1322;53.256;10.386;2023-06-14T05:16:29;20.80;99.90
2625;DHT22;1322;53.256;10.386;2023-06-14T05:18:55;20.80;99.90
2625;DHT22;1322;53.256;10.386;2023-06-14T05:21:21;20.90;99.90
2625;DHT22;1322;53.256;10.386;2023-06-14T05:23:47;21.30;99.90
2625;DHT22;1322;53.256;10.386;2023-06-14T05:26:12;21.40;99.90
2625;DHT22;1322;53.256;10.386;2023-06-14T05:28:38;20.90;99.90
2625;DHT22;1322;53.256;10.386;2023-06-14T05:31:04;21.20;99.90
2625;DHT22;1322;53.256;10.386;2023-06-14T05:33:29;21.80;99.90
2625;DHT22;1322;53.256;10.386;2023-06-14T05:35:55;22.00;99.90
2625;DHT22;1322;53.256;10.386;2023-06-14T05:38:21;22.00;99.90
2625;DHT22;1322;53.256;10.386;2023-06-14T05:40:46;22.10;99.90
2625;DHT22;1322;53.256;10.386;2023-06-14T05:43:12;22.10;99.90
2625;DHT22;1322;53.256;10.386;2023-06-14T05:45:38;22.10;99.90
2625;DHT22;1322;53.256;10.386;2023-06-14T05:48:03;22.00;99.90
2625;DHT22;1322;53.256;10.386;2023-06-14T05:50:29;22.00;99.90
2625;DHT22;1322;53.256;10.386;2023-06-14T05:52:55;22.10;99.90
2625;DHT22;1322;53.256;10.386;2023-06-14T05:55:21;22.30;99.90
2625;DHT22;1322;53.256;10.386;2023-06-14T05:57:47;22.30;99.90
2625;DHT22;1322;53.256;10.386;2023-06-14T06:00:14;22.20;99.90
2625;DHT22;1322;53.256;10.386;2023-06-14T06:02:41;22.10;99.90
2625;DHT22;1322;53.256;10.386;2023-06-14T06:05:09;22.00;99.90
2625;DHT22;1322;53.256;10.386;2023-06-14T06:07:35;22.20;99.90
2625;DHT22;1322;53.256;10.386;2023-06-14T06:10:00;22.20;99.90
2625;DHT22;1322;53.256;10.386;2023-06-14T06:12:26;22.30;99.90
2625;DHT22;1322;53.256;10.386;2023-06-14T06:14:52;22.30;99.90
2625;DHT22;1322;53.256;10.386;2023-06-14T06:17:17;22.00;99.90
2625;DHT22;1322;53.256;10.386;2023-06-14T06:19:43;22.50;99.90
2625;DHT22;1322;53.256;10.386;2023-06-14T06:22:09;22.40;99.90
2625;DHT22;1322;53.256;10.386;2023-06-14T06:24:34;23.00;99.90
2625;DHT22;1322;53.256;10.386;2023-06-14T06:27:00;23.10;99.90
2625;DHT22;1322;53.256;10.386;2023-06-14T06:29:26;23.30;99.90
2625;DHT22;1322;53.256;10.386;2023-06-14T06:31:51;23.30;99.90
2625;DHT22;1322;53.256;10.386;2023-06-14T06:34:17;23.60;99.90
2625;DHT22;1322;53.256;10.386;2023-06-14T06:36:43;23.60;99.90
2625;DHT22;1322;53.256;10.386;2023-06-14T06:39:08;23.90;99.90
2625;DHT22;1322;53.256;10.386;2023-06-14T06:41:39;24.00;99.90
2625;DHT22;1322;53.256;10.386;2023-06-14T06:44:06;24.30;99.90
2625;DHT22;1322;53.256;10.386;2023-06-14T06:46:34;24.40;99.90
2625;DHT22;1322;53.256;10.386;2023-06-14T06:49:00;24.40;99.90
2625;DHT22;1322;53.256;10.386;2023-06-14T06:51:26;24.20;99.90
2625;DHT22;1322;53.256;10.386;2023-06-14T06:53:53;24.40;99.90
2625;DHT22;1322;53.256;10.386;2023-06-14T06:56:19;24.50;99.90
2625;DHT22;1322;53.256;10.386;2023-06-14T06:58:45;24.40;99.90
2625;DHT22;1322;53.256;10.386;2023-06-14T07:01:11;24.10;99.90
2625;DHT22;1322;53.256;10.386;2023-06-14T07:03:37;24.00;99.90
2625;DHT22;1322;53.256;10.386;2023-06-14T07:06:03;23.80;99.90
2625;DHT22;1322;53.256;10.386;2023-06-14T07:08:29;24.20;99.90
2625;DHT22;1322;53.256;10.386;2023-06-14T07:10:55;24.30;99.90
2625;DHT22;1322;53.256;10.386;2023-06-14T07:13:20;24.30;99.90
2625;DHT22;1322;53.256;10.386;2023-06-14T07:15:46;24.30;99.90
2625;DHT22;1322;53.256;10.386;2023-06-14T07:18:12;24.40;99.90
2625;DHT22;1322;53.256;10.386;2023-06-14T07:20:38;24.70;99.90
2625;DHT22;1322;53.256;10.386;2023-06-14T07:23:04;25.10;99.90
2625;DHT22;1322;53.256;10.386;2023-06-14T07:25:31;25.30;99.90
2625;DHT22;1322;53.256;10.386;2023-06-14T07:27:56;25.30;99.90
2625;DHT22;1322;53.256;10.386;2023-06-14T07:30:22;25.10;99.90
2625;DHT22;1322;53.256;10.386;2023-06-14T07:32:51;24.90;99.90
2625;DHT22;1322;53.256;10.386;2023-06-14T07:35:18;24.70;99.90
2625;DHT22;1322;53.256;10.386;2023-06-14T07:37:43;24.80;99.90
2625;DHT22;1322;53.256;10.386;2023-06-14T07:40:09;24.80;99.90
2625;DHT22;1322;53.256;10.386;2023-06-14T07:42:35;24.60;99.90
2625;DHT22;1322;53.256;10.386;2023-06-14T07:45:02;24.60;99.90
2625;DHT22;1322;53.256;10.386;2023-06-14T07:47:28;24.70;99.90
2625;DHT22;1322;53.256;10.386;2023-06-14T07:49:54;24.70;99.90
2625;DHT22;1322;53.256;10.386;2023-06-14T07:52:19;24.20;99.90
2625;DHT22;1322;53.256;10.386;2023-06-14T07:54:45;24.10;99.90
2625;DHT22;1322;53.256;10.386;2023-06-14T07:57:11;23.90;99.90
2625;DHT22;1322;53.256;10.386;2023-06-14T07:59:36;24.10;99.90
2625;DHT22;1322;53.256;10.386;2023-06-14T08:02:02;24.30;99.90
2625;DHT22;1322;53.256;10.386;2023-06-14T08:04:28;24.20;99.90
2625;DHT22;1322;53.256;10.386;2023-06-14T08:06:53;24.30;99.90
2625;DHT22;1322;53.256;10.386;2023-06-14T08:09:19;24.40;99.90
2625;DHT22;1322;53.256;10.386;2023-06-14T08:11:45;24.00;99.90
2625;DHT22;1322;53.256;10.386;2023-06-14T08:14:10;24.00;99.90
2625;DHT22;1322;53.256;10.386;2023-06-14T08:16:36;23.90;99.90
2625;DHT22;1322;53.256;10.386;2023-06-14T08:19:03;24.10;99.90
2625;DHT22;1322;53.256;10.386;2023-06-14T08:21:28;24.10;99.90
2625;DHT22;1322;53.256;10.386;2023-06-14T08:23:55;24.00;99.90
2625;DHT22;1322;53.256;10.386;2023-06-14T08:26:21;23.80;99.90
2625;DHT22;1322;53.256;10.386;2023-06-14T08:28:47;24.00;99.90
2625;DHT22;1322;53.256;10.386;2023-06-14T08:31:12;24.00;99.90
2625;DHT22;1322;53.256;10.386;2023-06-14T08:33:38;24.20;99.90
2625;DHT22;1322;53.256;10.386;2023-06-14T08:36:08;24.20;99.90
2625;DHT22;1322;53.256;10.386;2023-06-14T08:38:33;24.20;99.90
2625;DHT22;1322;53.256;10.386;2023-06-14T08:41:01;24.30;99.90
2625;DHT22;1322;53.256;10.386;2023-06-14T08:43:27;24.30;99.90
2625;DHT22;1322;53.256;10.386;2023-06-14T08:45:58;24.10;99.90
2625;DHT22;1322;53.256;10.386;2023-06-14T08:48:26;24.00;99.90
2625;DHT22;1322;53.256;10.386;2023-06-14T08:50:56;23.90;99.90
2625;DHT22;1322;53.256;10.386;2023-06-14T08:53:28;23.70;99.90
2625;DHT22;1322;53.256;10.386;2023-06-14T08:55:58;23.70;99.90
2625;DHT22;1322;53.256;10.386;2023-06-14T08:58:27;23.40;99.90
2625;DHT22;1322;53.256;10.386;2023-06-14T09:00:55;23.30;99.90
2625;DHT22;1322;53.256;10.386;2023-06-14T09:03:21;23.40;99.90
2625;DHT22;1322;53.256;10.386;2023-06-14T09:05:48;23.40;99.90
2625;DHT22;1322;53.256;10.386;2023-06-14T09:08:15;23.60;99.90
2625;DHT22;1322;53.256;10.386;2023-06-14T09:10:41;23.50;99.90
2625;DHT22;1322;53.256;10.386;2023-06-14T09:13:07;23.50;99.90
2625;DHT22;1322;53.256;10.386;2023-06-14T09:15:34;23.60;99.90
2625;DHT22;1322;53.256;10.386;2023-06-14T09:18:03;23.60;99.90
2625;DHT22;1322;53.256;10.386;2023-06-14T09:20:30;23.70;99.90
2625;DHT22;1322;53.256;10.386;2023-06-14T09:22:56;23.50;99.90
2625;DHT22;1322;53.256;10.386;2023-06-14T09:25:22;23.60;99.90
2625;DHT22;1322;53.256;10.386;2023-06-14T09:27:48;23.60;99.90
2625;DHT22;1322;53.256;10.386;2023-06-14T09:30:13;23.60;99.90
2625;DHT22;1322;53.256;10.386;2023-06-14T09:32:40;23.60;99.90
2625;DHT22;1322;53.256;10.386;2023-06-14T09:35:07;23.80;99.90
2625;DHT22;1322;53.256;10.386;2023-06-14T09:37:33;24.00;99.90
2625;DHT22;1322;53.256;10.386;2023-06-14T09:39:59;24.20;99.90
2625;DHT22;1322;53.256;10.386;2023-06-14T09:42:25;24.20;99.90
2625;DHT22;1322;53.256;10.386;2023-06-14T09:44:54;24.40;99.90
2625;DHT22;1322;53.256;10.386;2023-06-14T09:47:21;24.50;99.90
2625;DHT22;1322;53.256;10.386;2023-06-14T09:49:47;24.70;99.90
2625;DHT22;1322;53.256;10.386;2023-06-14T09:52:18;24.80;99.90
2625;DHT22;1322;53.256;10.386;2023-06-14T09:54:46;25.00;99.90
2625;DHT22;1322;53.256;10.386;2023-06-14T09:57:13;25.00;99.90
2625;DHT22;1322;53.256;10.386;2023-06-14T09:59:44;25.20;99.90
2625;DHT22;1322;53.256;10.386;2023-06-14T10:02:34;24.80;99.90
2625;DHT22;1322;53.256;10.386;2023-06-14T10:05:04;24.50;99.90
2625;DHT22;1322;53.256;10.386;2023-06-14T10:07:42;24.30;99.90
2625;DHT22;1322;53.256;10.386;2023-06-14T10:10:10;24.40;99.90
2625;DHT22;1322;53.256;10.386;2023-06-14T10:12:36;24.50;99.90
2625;DHT22;1322;53.256;10.386;2023-06-14T10:15:03;24.80;99.90
2625;DHT22;1322;53.256;10.386;2023-06-14T10:17:49;24.90;99.90
2625;DHT22;1322;53.256;10.386;2023-06-14T10:20:21;25.30;99.90
2625;DHT22;1322;53.256;10.386;2023-06-14T10:23:10;25.30;99.90
2625;DHT22;1322;53.256;10.386;2023-06-14T10:25:37;25.20;99.90
2625;DHT22;1322;53.256;10.386;2023-06-14T10:28:20;25.30;99.90
2625;DHT22;1322;53.256;10.386;2023-06-14T10:31:11;25.00;99.90
2625;DHT22;1322;53.256;10.386;2023-06-14T10:33:49;24.70;99.90
2625;DHT22;1322;53.256;10.386;2023-06-14T10:39:16;24.40;99.90
2625;DHT22;1322;53.256;10.386;2023-06-14T10:41:54;24.20;99.90
2625;DHT22;1322;53.256;10.386;2023-06-14T10:49:20;25.10;99.90
2625;DHT22;1322;53.256;10.386;2023-06-14T10:52:03;25.30;99.90
2625;DHT22;1322;53.256;10.386;2023-06-14T10:54:28;25.40;99.90
2625;DHT22;1322;53.256;10.386;2023-06-14T10:56:54;25.30;99.90
2625;DHT22;1322;53.256;10.386;2023-06-14T10:59:20;25.30;99.90
2625;DHT22;1322;53.256;10.386;2023-06-14T11:02:00;25.10;99.90
2625;DHT22;1322;53.256;10.386;2023-06-14T11:04:47;24.90;99.90
2625;DHT22;1322;53.256;10.386;2023-06-14T11:07:32;24.70;99.90
2625;DHT22;1322;53.256;10.386;2023-06-14T11:12:48;24.70;99.90
2625;DHT22;1322;53.256;10.386;2023-06-14T11:15:14;24.70;99.90
2625;DHT22;1322;53.256;10.386;2023-06-14T11:17:48;24.80;99.90
2625;DHT22;1322;53.256;10.386;2023-06-14T11:20:15;24.90;99.90
2625;DHT22;1322;53.256;10.386;2023-06-14T11:22:44;25.10;99.90
2625;DHT22;1322;53.256;10.386;2023-06-14T11:25:12;25.40;99.90
2625;DHT22;1322;53.256;10.386;2023-06-14T11:27:38;25.50;99.90
2625;DHT22;1322;53.256;10.386;2023-06-14T11:30:07;25.70;99.90
2625;DHT22;1322;53.256;10.386;2023-06-14T11:32:33;26.00;99.90
2625;DHT22;1322;53.256;10.386;2023-06-14T11:34:58;26.00;99.90
2625;DHT22;1322;53.256;10.386;2023-06-14T11:37:26;26.00;99.90
2625;DHT22;1322;53.256;10.386;2023-06-14T11:39:56;26.10;99.90
2625;DHT22;1322;53.256;10.386;2023-06-14T11:42:22;25.90;99.90
2625;DHT22;1322;53.256;10.386;2023-06-14T11:44:49;25.40;99.90
2625;DHT22;1322;53.256;10.386;2023-06-14T11:47:15;25.30;99.90
2625;DHT22;1322;53.256;10.386;2023-06-14T11:49:41;25.30;99.90
2625;DHT22;1322;53.256;10.386;2023-06-14T11:52:07;25.40;99.90
2625;DHT22;1322;53.256;10.386;2023-06-14T11:54:33;25.40;99.90
2625;DHT22;1322;53.256;10.386;2023-06-14T11:56:59;25.50;99.90
2625;DHT22;1322;53.256;10.386;2023-06-14T11:59:25;25.30;99.90
2625;DHT22;1322;53.256;10.386;2023-06-14T12:01:53;25.30;99.90
2625;DHT22;1322;53.256;10.386;2023-06-14T12:04:28;25.30;99.90
2625;DHT22;1322;53.256;10.386;2023-06-14T12:06:55;25.40;99.90
2625;DHT22;1322;53.256;10.386;2023-06-14T12:09:23;25.10;99.90
2625;DHT22;1322;53.256;10.386;2023-06-14T12:11:49;25.30;99.90
2625;DHT22;1322;53.256;10.386;2023-06-14T12:14:15;25.30;99.90
2625;DHT22;1322;53.256;10.386;2023-06-14T12:16:42;25.30;99.90
2625;DHT22;1322;53.256;10.386;2023-06-14T12:19:16;25.40;99.90
2625;DHT22;1322;53.256;10.386;2023-06-14T12:21:43;25.40;99.90
2625;DHT22;1322;53.256;10.386;2023-06-14T12:24:12;25.50;99.90
2625;DHT22;1322;53.256;10.386;2023-06-14T12:26:39;25.50;99.90
2625;DHT22;1322;53.256;10.386;2023-06-14T12:29:06;25.50;99.90
2625;DHT22;1322;53.256;10.386;2023-06-14T12:31:32;25.70;99.90
2625;DHT22;1322;53.256;10.386;2023-06-14T12:33:58;25.80;99.90
2625;DHT22;1322;53.256;10.386;2023-06-14T12:36:24;25.40;99.90
2625;DHT22;1322;53.256;10.386;2023-06-14T12:38:51;25.50;99.90
2625;DHT22;1322;53.256;10.386;2023-06-14T12:41:19;25.50;98.50
2625;DHT22;1322;53.256;10.386;2023-06-14T12:43:46;25.50;98.70
2625;DHT22;1322;53.256;10.386;2023-06-14T12:46:12;25.30;98.70
2625;DHT22;1322;53.256;10.386;2023-06-14T12:48:37;25.40;99.90
2625;DHT22;1322;53.256;10.386;2023-06-14T12:51:03;25.10;98.70
2625;DHT22;1322;53.256;10.386;2023-06-14T12:53:29;25.20;99.20
2625;DHT22;1322;53.256;10.386;2023-06-14T12:55:54;25.30;98.80
2625;DHT22;1322;53.256;10.386;2023-06-14T12:58:20;25.20;98.30
2625;DHT22;1322;53.256;10.386;2023-06-14T13:00:46;25.30;98.70
2625;DHT22;1322;53.256;10.386;2023-06-14T13:03:12;25.60;98.60
2625;DHT22;1322;53.256;10.386;2023-06-14T13:05:38;25.60;98.70
2625;DHT22;1322;53.256;10.386;2023-06-14T13:08:07;25.80;98.10
2625;DHT22;1322;53.256;10.386;2023-06-14T13:10:33;25.50;97.30
2625;DHT22;1322;53.256;10.386;2023-06-14T13:12:59;25.50;96.90
2625;DHT22;1322;53.256;10.386;2023-06-14T13:15:26;25.60;97.00
2625;DHT22;1322;53.256;10.386;2023-06-14T13:17:52;25.70;96.60
2625;DHT22;1322;53.256;10.386;2023-06-14T13:20:18;25.60;96.50
2625;DHT22;1322;53.256;10.386;2023-06-14T13:22:43;25.90;96.60
2625;DHT22;1322;53.256;10.386;2023-06-14T13:25:09;25.90;97.00
2625;DHT22;1322;53.256;10.386;2023-06-14T13:27:35;25.90;96.20
2625;DHT22;1322;53.256;10.386;2023-06-14T13:30:02;26.10;96.70
2625;DHT22;1322;53.256;10.386;2023-06-14T13:32:27;26.20;95.10
2625;DHT22;1322;53.256;10.386;2023-06-14T13:34:53;25.80;95.40
2625;DHT22;1322;53.256;10.386;2023-06-14T13:37:19;25.80;95.70
2625;DHT22;1322;53.256;10.386;2023-06-14T13:39:45;25.70;95.50
2625;DHT22;1322;53.256;10.386;2023-06-14T13:42:10;25.60;95.50
2625;DHT22;1322;53.256;10.386;2023-06-14T13:44:36;25.50;95.50
2625;DHT22;1322;53.256;10.386;2023-06-14T13:47:02;25.50;95.60
2625;DHT22;1322;53.256;10.386;2023-06-14T13:49:28;25.70;95.70
2625;DHT22;1322;53.256;10.386;2023-06-14T13:51:54;25.60;95.40
2625;DHT22;1322;53.256;10.386;2023-06-14T13:54:20;25.90;95.50
2625;DHT22;1322;53.256;10.386;2023-06-14T13:56:47;26.00;95.60
2625;DHT22;1322;53.256;10.386;2023-06-14T13:59:13;26.00;94.60
2625;DHT22;1322;53.256;10.386;2023-06-14T14:01:39;26.10;94.90
2625;DHT22;1322;53.256;10.386;2023-06-14T14:04:05;25.90;94.40
2625;DHT22;1322;53.256;10.386;2023-06-14T14:06:30;26.10;94.70
2625;DHT22;1322;53.256;10.386;2023-06-14T14:08:56;25.90;93.70
2625;DHT22;1322;53.256;10.386;2023-06-14T14:11:22;25.90;94.70
2625;DHT22;1322;53.256;10.386;2023-06-14T14:13:48;26.20;95.20
2625;DHT22;1322;53.256;10.386;2023-06-14T14:16:14;26.30;95.10
2625;DHT22;1322;53.256;10.386;2023-06-14T14:18:40;26.00;94.70
2625;DHT22;1322;53.256;10.386;2023-06-14T14:21:06;25.80;95.40
2625;DHT22;1322;53.256;10.386;2023-06-14T14:23:32;25.70;95.90
2625;DHT22;1322;53.256;10.386;2023-06-14T14:25:57;25.60;96.30
2625;DHT22;1322;53.256;10.386;2023-06-14T14:28:23;25.60;96.80
2625;DHT22;1322;53.256;10.386;2023-06-14T14:30:49;25.90;97.10
2625;DHT22;1322;53.256;10.386;2023-06-14T14:33:15;26.10;97.30
2625;DHT22;1322;53.256;10.386;2023-06-14T14:35:45;26.20;97.90
2625;DHT22;1322;53.256;10.386;2023-06-14T14:38:12;26.10;98.80
2625;DHT22;1322;53.256;10.386;2023-06-14T14:40:38;26.00;98.50
2625;DHT22;1322;53.256;10.386;2023-06-14T14:43:04;25.70;98.70
2625;DHT22;1322;53.256;10.386;2023-06-14T14:45:30;25.30;98.70
2625;DHT22;1322;53.256;10.386;2023-06-14T14:47:56;25.00;98.90
2625;DHT22;1322;53.256;10.386;2023-06-14T14:50:21;24.70;99.10
2625;DHT22;1322;53.256;10.386;2023-06-14T14:52:47;24.60;99.30
2625;DHT22;1322;53.256;10.386;2023-06-14T14:55:12;24.70;99.20
2625;DHT22;1322;53.256;10.386;2023-06-14T14:57:38;24.60;98.50
2625;DHT22;1322;53.256;10.386;2023-06-14T15:00:05;24.70;99.00
2625;DHT22;1322;53.256;10.386;2023-06-14T15:02:31;25.00;98.90
2625;DHT22;1322;53.256;10.386;2023-06-14T15:04:57;25.30;98.60
2625;DHT22;1322;53.256;10.386;2023-06-14T15:07:26;25.60;98.40
2625;DHT22;1322;53.256;10.386;2023-06-14T15:09:53;25.80;97.20
2625;DHT22;1322;53.256;10.386;2023-06-14T15:12:18;26.00;95.80
2625;DHT22;1322;53.256;10.386;2023-06-14T15:14:45;26.00;96.40
2625;DHT22;1322;53.256;10.386;2023-06-14T15:17:11;26.10;99.20
2625;DHT22;1322;53.256;10.386;2023-06-14T15:19:36;26.10;99.30
2625;DHT22;1322;53.256;10.386;2023-06-14T15:22:02;25.70;99.70
2625;DHT22;1322;53.256;10.386;2023-06-14T15:24:28;25.40;99.90
2625;DHT22;1322;53.256;10.386;2023-06-14T15:26:53;25.10;99.90
2625;DHT22;1322;53.256;10.386;2023-06-14T15:29:19;24.80;99.90
2625;DHT22;1322;53.256;10.386;2023-06-14T15:31:45;24.70;99.90
2625;DHT22;1322;53.256;10.386;2023-06-14T15:34:10;24.60;99.90
2625;DHT22;1322;53.256;10.386;2023-06-14T15:36:36;24.50;99.90
2625;DHT22;1322;53.256;10.386;2023-06-14T15:39:01;24.50;99.90
2625;DHT22;1322;53.256;10.386;2023-06-14T15:41:27;24.40;99.90
2625;DHT22;1322;53.256;10.386;2023-06-14T15:43:53;24.50;99.90
2625;DHT22;1322;53.256;10.386;2023-06-14T15:46:21;24.50;99.90
2625;DHT22;1322;53.256;10.386;2023-06-14T15:48:46;24.50;99.90
2625;DHT22;1322;53.256;10.386;2023-06-14T15:51:12;24.50;99.90
2625;DHT22;1322;53.256;10.386;2023-06-14T15:53:38;24.60;99.90
2625;DHT22;1322;53.256;10.386;2023-06-14T15:56:03;24.60;99.90
2625;DHT22;1322;53.256;10.386;2023-06-14T15:58:29;24.50;99.90